Time;durP1;ratioP1;P1;durP2;ratioP2;P2;SDS_P1;SDS_P2;PMS_P1;PMS_P2;Temp;Humidity;BMP_temperature;BMP_pressure;BME280_temperature;BME280_humidity;BME280_pressure;Samples;Min_cycle;Max_cycle;Signal;HPM_P1;HPM_P2
2024/02/09 00:00:46;;;;;;;58.78;42.90;;;;;;;;;;9907354;28;20166;-71
2024/02/09 00:05:38;;;;;;;79.88;56.60;;;;;;;;;;9907007;28;20372;-71
2024/02/09 00:10:36;;;;;;;73.55;51.03;;;;;;;;;;9906619;28;20047;-72
2024/02/09 00:15:30;;;;;;;;;;;;;;;;;;9906975;28;22258;-72
2024/02/09 00:20:22;;;;;;;71.30;53.80;;;;;;;;;;9906654;28;19973;-71
2024/02/09 00:25:15;;;;;;;67.38;51.58;;;;;;;;;;9906341;28;20078;-71
2024/02/09 00:30:07;;;;;;;75.88;53.97;;;;;;;;;;9906504;28;20463;-71
2024/02/09 00:35:00;;;;;;;87.00;55.35;;;;;;;;;;9905572;28;20367;-71
2024/02/09 00:39:53;;;;;;;66.47;51.78;;;;;;;;;;9907053;28;20146;-71
2024/02/09 00:44:45;;;;;;;63.97;49.00;;;;;;;;;;9890650;28;20055;-71
2024/02/09 00:49:41;;;;;;;71.82;51.25;;;;;;;;;;9917554;28;20039;-71
2024/02/09 00:54:33;;;;;;;66.88;46.85;;;;;;;;;;9906158;28;20051;-71
2024/02/09 00:59:26;;;;;;;64.88;47.40;;;;;;;;;;9906415;28;20130;-71
2024/02/09 01:04:18;;;;;;;69.75;51.85;;;;;;;;;;9905001;28;20370;-71
2024/02/09 01:09:10;;;;;;;63.85;48.15;;;;;;;;;;9906589;28;20079;-71
2024/02/09 02:47:03;;;;;;;61.92;49.92;;;;;;;;;;9909049;28;20071;-71
2024/02/09 03:07:27;;;;;;;45.47;29.02;;;;;;;;;;9908747;28;20427;-71
2024/02/09 03:12:39;;;;;;;20.70;11.25;;;;;;;;;;9908341;28;20038;-71
2024/02/09 03:17:32;;;;;;;14.93;8.32;;;;;;;;;;9907342;28;20478;-71
2024/02/09 03:22:24;;;;;;;11.82;6.32;;;;;;;;;;9907178;28;20051;-71
2024/02/09 03:27:16;;;;;;;14.38;6.57;;;;;;;;;;9908427;28;20489;-71
2024/02/09 03:32:09;;;;;;;15.15;6.05;;;;;;;;;;9907936;28;20067;-71
2024/02/09 03:37:01;;;;;;;14.45;6.63;;;;;;;;;;9908282;28;20126;-71
2024/02/09 03:41:53;;;;;;;9.77;5.50;;;;;;;;;;9907428;28;20483;-71
2024/02/09 03:46:46;;;;;;;13.13;5.60;;;;;;;;;;9907803;28;20379;-71
2024/02/09 03:51:38;;;;;;;14.82;5.57;;;;;;;;;;9905950;28;20055;-71
2024/02/09 03:56:30;;;;;;;43.03;33.45;;;;;;;;;;9908022;28;20398;-71
2024/02/09 04:01:22;;;;;;;47.63;37.53;;;;;;;;;;9906050;28;20050;-71
2024/02/09 04:06:15;;;;;;;49.28;39.92;;;;;;;;;;9916523;28;20134;-71
2024/02/09 04:11:07;;;;;;;47.78;39.63;;;;;;;;;;9906808;28;20051;-71
2024/02/09 04:16:00;;;;;;;52.95;36.35;;;;;;;;;;9907044;28;20102;-71
2024/02/09 04:20:52;;;;;;;50.85;38.92;;;;;;;;;;9906082;28;20083;-71
2024/02/09 04:25:44;;;;;;;47.22;33.22;;;;;;;;;;9906673;28;20134;-71
2024/02/09 04:30:36;;;;;;;53.35;36.22;;;;;;;;;;9907105;28;20047;-71
2024/02/09 04:35:28;;;;;;;52.83;37.30;;;;;;;;;;9915585;28;20043;-71
2024/02/09 04:40:20;;;;;;;45.55;37.83;;;;;;;;;;9905680;28;20113;-71
2024/02/09 04:45:12;;;;;;;48.03;35.53;;;;;;;;;;9906599;28;20047;-71
2024/02/09 04:50:05;;;;;;;48.60;38.50;;;;;;;;;;9905096;28;20110;-71
2024/02/09 04:54:57;;;;;;;48.58;36.65;;;;;;;;;;9905258;28;20053;-70
2024/02/09 04:59:49;;;;;;;52.60;38.72;;;;;;;;;;9906302;28;20438;-71
2024/02/09 05:04:41;;;;;;;42.97;36.80;;;;;;;;;;9905750;28;20051;-71
2024/02/09 05:09:33;;;;;;;48.25;37.47;;;;;;;;;;9906599;28;20043;-71
2024/02/09 05:14:25;;;;;;;51.65;38.53;;;;;;;;;;9912728;28;20506;-71
2024/02/09 05:19:17;;;;;;;47.03;38.55;;;;;;;;;;9912304;28;20055;-71
2024/02/09 05:24:09;;;;;;;50.72;40.42;;;;;;;;;;9913055;28;20437;-71
2024/02/09 05:29:02;;;;;;;69.95;54.83;;;;;;;;;;9911772;28;20047;-71
2024/02/09 05:33:55;;;;;;;71.90;54.38;;;;;;;;;;9912500;28;20066;-71
2024/02/09 05:38:47;;;;;;;46.83;38.40;;;;;;;;;;9912303;28;20039;-71
2024/02/09 05:43:40;;;;;;;50.80;36.67;;;;;;;;;;9911682;28;20047;-71
2024/02/09 05:48:32;;;;;;;48.58;37.53;;;;;;;;;;9910665;28;20090;-71
2024/02/09 05:53:24;;;;;;;52.40;41.90;;;;;;;;;;9910529;28;20473;-71
2024/02/09 05:58:16;;;;;;;50.05;36.70;;;;;;;;;;9911796;28;20039;-71
2024/02/09 06:03:08;;;;;;;54.75;40.00;;;;;;;;;;9911192;28;20047;-70
2024/02/09 06:08:03;;;;;;;48.00;38.55;;;;;;;;;;9910940;28;20486;-72
2024/02/09 06:12:55;;;;;;;45.55;36.53;;;;;;;;;;9911089;28;20744;-71
2024/02/09 06:17:47;;;;;;;43.70;37.25;;;;;;;;;;9909757;28;20047;-71
2024/02/09 06:22:38;;;;;;;43.67;38.25;;;;;;;;;;9910302;28;20050;-71
2024/02/09 06:27:31;;;;;;;60.45;41.22;;;;;;;;;;9914441;28;20145;-71
2024/02/09 06:32:23;;;;;;;46.53;35.53;;;;;;;;;;9933783;28;20050;-71
2024/02/09 06:37:18;;;;;;;48.40;37.15;;;;;;;;;;9946117;28;20055;-71
2024/02/09 06:42:10;;;;;;;53.40;36.47;;;;;;;;;;9945530;28;20061;-71
2024/02/09 06:47:02;;;;;;;47.67;38.58;;;;;;;;;;9946239;28;20526;-70
2024/02/09 06:51:54;;;;;;;49.58;40.17;;;;;;;;;;9945472;28;20055;-71
2024/02/09 06:56:46;;;;;;;50.63;38.03;;;;;;;;;;9945401;28;20524;-71
2024/02/09 07:01:41;;;;;;;76.65;57.03;;;;;;;;;;9944337;28;20050;-71
2024/02/09 07:06:35;;;;;;;73.88;58.65;;;;;;;;;;9942964;28;20046;-71
2024/02/09 07:11:27;;;;;;;46.00;36.92;;;;;;;;;;9937200;28;20058;-71
2024/02/09 07:16:18;;;;;;;46.42;37.92;;;;;;;;;;9944115;28;20501;-72
2024/02/09 07:21:14;;;;;;;46.75;37.50;;;;;;;;;;9947226;28;20042;-71
2024/02/09 07:26:10;;;;;;;54.92;41.95;;;;;;;;;;9948242;28;20081;-71
2024/02/09 07:31:03;;;;;;;53.30;40.25;;;;;;;;;;9948671;28;20047;-71
2024/02/09 07:35:55;;;;;;;49.72;40.78;;;;;;;;;;9946638;28;20043;-72
2024/02/09 07:40:47;;;;;;;50.95;39.80;;;;;;;;;;9908649;28;20467;-71
2024/02/09 07:45:39;;;;;;;62.58;47.03;;;;;;;;;;9907975;28;20043;-72
2024/02/09 07:50:31;;;;;;;60.92;43.97;;;;;;;;;;9908225;28;20039;-71
2024/02/09 07:55:23;;;;;;;47.38;38.63;;;;;;;;;;9911024;28;20066;-71
2024/02/09 08:00:18;;;;;;;40.00;32.53;;;;;;;;;;9910708;28;20105;-71
2024/02/09 08:05:17;;;;;;;25.52;17.63;;;;;;;;;;9909556;28;20094;-72
2024/02/09 08:10:10;;;;;;;14.05;10.40;;;;;;;;;;9912162;28;20050;-71
2024/02/09 08:15:04;;;;;;;10.75;7.28;;;;;;;;;;9910442;28;20126;-70
2024/02/09 08:19:57;;;;;;;12.35;6.03;;;;;;;;;;9910292;28;20051;-72
2024/02/09 08:24:50;;;;;;;19.38;7.15;;;;;;;;;;9909037;28;20063;-72
2024/02/09 08:29:42;;;;;;;13.73;6.32;;;;;;;;;;9911704;28;20132;-72
2024/02/09 08:34:34;;;;;;;42.88;28.13;;;;;;;;;;9909155;28;20051;-70
2024/02/09 08:39:26;;;;;;;42.35;31.70;;;;;;;;;;9911540;28;20463;-72
2024/02/09 08:44:18;;;;;;;44.35;33.25;;;;;;;;;;9910618;28;20051;-72
2024/02/09 08:49:10;;;;;;;46.33;34.42;;;;;;;;;;9918788;28;20043;-71
2024/02/09 08:54:02;;;;;;;27.88;21.77;;;;;;;;;;9918404;28;20110;-71
2024/02/09 08:58:54;;;;;;;10.95;6.55;;;;;;;;;;9917108;28;20049;-71
2024/02/09 09:03:46;;;;;;;12.20;5.35;;;;;;;;;;9921867;28;20086;-72
2024/02/09 09:08:39;;;;;;;10.07;5.15;;;;;;;;;;9917604;28;20078;-73
2024/02/09 09:13:31;;;;;;;15.32;6.35;;;;;;;;;;9917056;28;20051;-72
2024/02/09 09:18:23;;;;;;;37.92;13.63;;;;;;;;;;9915304;28;20454;-72
2024/02/09 09:23:15;;;;;;;48.65;13.73;;;;;;;;;;9915803;28;20392;-72
2024/02/09 09:28:08;;;;;;;21.77;8.50;;;;;;;;;;9915245;28;20389;-72
2024/02/09 09:33:00;;;;;;;19.55;8.60;;;;;;;;;;9916015;28;20178;-72
2024/02/09 09:37:52;;;;;;;12.32;7.63;;;;;;;;;;9915456;28;20047;-72
2024/02/09 09:42:45;;;;;;;24.98;12.48;;;;;;;;;;9915143;28;20418;-72
2024/02/09 09:47:44;;;;;;;17.60;9.05;;;;;;;;;;9914979;28;20051;-72
2024/02/09 09:52:43;;;;;;;12.90;6.45;;;;;;;;;;9915395;28;20062;-72
2024/02/09 09:57:35;;;;;;;20.83;9.13;;;;;;;;;;9897597;28;20054;-72
2024/02/09 10:02:27;;;;;;;18.63;10.73;;;;;;;;;;9915581;28;20044;-72
2024/02/09 10:07:19;;;;;;;22.33;15.50;;;;;;;;;;9897568;28;20435;-72
2024/02/09 10:12:14;;;;;;;15.85;7.93;;;;;;;;;;9914468;28;20047;-72
2024/02/09 10:17:06;;;;;;;14.82;6.50;;;;;;;;;;9916351;28;20055;-71
2024/02/09 10:21:59;;;;;;;10.90;5.03;;;;;;;;;;9914032;28;20435;-71
2024/02/09 10:26:57;;;;;;;;;;;;;;;;;;9915686;28;20130;-72
2024/02/09 10:31:53;;;;;;;40.22;28.23;;;;;;;;;;9914406;28;19922;-72
2024/02/09 10:36:47;;;;;;;46.40;31.75;;;;;;;;;;9913417;28;20039;-72
2024/02/09 10:41:39;;;;;;;48.92;33.33;;;;;;;;;;9914009;28;20081;-72
2024/02/09 10:46:33;;;;;;;51.58;32.90;;;;;;;;;;9902070;28;20105;-72
2024/02/09 10:51:35;;;;;;;48.25;30.50;;;;;;;;;;9897520;28;20434;-72
2024/02/09 10:56:29;;;;;;;39.13;26.88;;;;;;;;;;9914285;28;20382;-72
2024/02/09 11:01:21;;;;;;;40.60;25.13;;;;;;;;;;9896093;28;20538;-72
2024/02/09 11:06:13;;;;;;;39.25;22.38;;;;;;;;;;9900536;28;20458;-71
2024/02/09 11:11:05;;;;;;;44.30;35.90;;;;;;;;;;9910391;28;21194;-71
2024/02/09 11:16:01;;;;;;;44.50;29.27;;;;;;;;;;9911783;28;20098;-71
2024/02/09 11:20:59;;;;;;;10.82;8.25;;;;;;;;;;9911776;28;20144;-71
2024/02/09 11:25:56;;;;;;;9.20;5.20;;;;;;;;;;9911920;28;20147;-71
2024/02/09 11:30:54;;;;;;;10.57;4.85;;;;;;;;;;9911423;28;20364;-71
2024/02/09 11:35:48;;;;;;;8.45;3.30;;;;;;;;;;9911315;28;20053;-72
2024/02/09 11:40:40;;;;;;;13.60;6.82;;;;;;;;;;9910813;28;20051;-72
2024/02/09 11:45:33;;;;;;;16.25;8.52;;;;;;;;;;9911240;28;20055;-71
2024/02/09 11:50:28;;;;;;;4.90;2.78;;;;;;;;;;9900340;28;20083;-71
2024/02/09 11:55:20;;;;;;;9.63;3.10;;;;;;;;;;9909560;28;20058;-71
2024/02/09 12:00:13;;;;;;;6.50;2.72;;;;;;;;;;9910013;28;20050;-71
2024/02/09 12:05:07;;;;;;;7.30;3.30;;;;;;;;;;9895951;28;20043;-71
2024/02/09 12:09:59;;;;;;;7.38;2.50;;;;;;;;;;9909538;28;20094;-72
2024/02/09 12:14:52;;;;;;;4.65;2.58;;;;;;;;;;9910325;28;20055;-71
2024/02/09 12:19:44;;;;;;;8.27;3.28;;;;;;;;;;9909837;28;20482;-72
2024/02/09 12:24:36;;;;;;;6.07;2.88;;;;;;;;;;9897161;28;20375;-71
2024/02/09 12:29:28;;;;;;;5.28;2.42;;;;;;;;;;9910703;28;20047;-71
2024/02/09 12:34:20;;;;;;;23.30;11.95;;;;;;;;;;9908860;28;20047;-71
2024/02/09 12:39:13;;;;;;;26.65;18.75;;;;;;;;;;9908095;28;20110;-71
2024/02/09 12:44:06;;;;;;;30.25;21.48;;;;;;;;;;9891992;28;20043;-71
2024/02/09 12:49:00;;;;;;;14.60;7.38;;;;;;;;;;9906517;28;20051;-71
2024/02/09 12:53:52;;;;;;;7.85;4.57;;;;;;;;;;9909364;28;20142;-71
2024/02/09 12:58:45;;;;;;;14.43;9.23;;;;;;;;;;9908934;28;21329;-72
2024/02/09 13:03:40;;;;;;;14.20;5.93;;;;;;;;;;9908378;28;20054;-72
2024/02/09 13:08:33;;;;;;;12.95;6.10;;;;;;;;;;9908680;28;20055;-72
2024/02/09 13:13:25;;;;;;;13.73;3.60;;;;;;;;;;9916720;28;20097;-72
2024/02/09 13:18:17;;;;;;;7.50;4.88;;;;;;;;;;9911203;28;20533;-72
2024/02/09 13:23:11;;;;;;;17.55;9.45;;;;;;;;;;9908541;28;20107;-71
2024/02/09 13:28:06;;;;;;;12.73;5.88;;;;;;;;;;9917472;28;20045;-71
2024/02/09 13:32:58;;;;;;;12.73;4.15;;;;;;;;;;9915200;28;20051;-72
2024/02/09 13:37:50;;;;;;;13.57;5.22;;;;;;;;;;9917219;28;20043;-71
2024/02/09 13:42:45;;;;;;;17.13;6.72;;;;;;;;;;9917649;28;20047;-72
2024/02/09 13:47:38;;;;;;;18.80;9.48;;;;;;;;;;9919660;28;20381;-72
2024/02/09 13:52:29;;;;;;;14.63;8.25;;;;;;;;;;9916697;28;20060;-71
2024/02/09 13:57:21;;;;;;;14.25;5.35;;;;;;;;;;9921153;28;20051;-71
2024/02/09 14:02:13;;;;;;;10.77;5.32;;;;;;;;;;9920403;28;20054;-71
2024/02/09 14:07:08;;;;;;;16.45;7.45;;;;;;;;;;9931891;28;20051;-71
2024/02/09 14:12:00;;;;;;;9.30;4.50;;;;;;;;;;9921905;28;20055;-71
2024/02/09 14:16:52;;;;;;;20.35;8.02;;;;;;;;;;9923972;28;20069;-71
2024/02/09 14:21:45;;;;;;;51.17;22.20;;;;;;;;;;9921969;28;20596;-71
2024/02/09 14:26:36;;;;;;;23.92;11.60;;;;;;;;;;9932725;28;20039;-71
2024/02/09 14:31:28;;;;;;;53.45;24.88;;;;;;;;;;9921067;28;20051;-71
2024/02/09 14:36:20;;;;;;;19.73;9.30;;;;;;;;;;9914004;28;20043;-71
2024/02/09 14:41:12;;;;;;;14.73;9.02;;;;;;;;;;9916876;28;20131;-71
2024/02/09 14:46:04;;;;;;;14.02;6.57;;;;;;;;;;9913436;28;20046;-71
2024/02/09 14:51:01;;;;;;;38.85;26.60;;;;;;;;;;9915771;28;20059;-71
2024/02/09 14:55:54;;;;;;;82.80;50.47;;;;;;;;;;9912228;28;20051;-70
2024/02/09 15:00:47;;;;;;;82.32;52.80;;;;;;;;;;9915532;28;20040;-71
2024/02/09 15:05:42;;;;;;;82.72;55.13;;;;;;;;;;9915446;28;20490;-71
2024/02/09 15:10:34;;;;;;;88.70;56.13;;;;;;;;;;9922176;28;20058;-71
2024/02/09 15:15:29;;;;;;;88.00;59.35;;;;;;;;;;9911572;28;20054;-71
2024/02/09 15:20:22;;;;;;;95.95;58.45;;;;;;;;;;9920779;28;20117;-71
2024/02/09 15:25:15;;;;;;;96.15;54.88;;;;;;;;;;9899013;28;20183;-73
2024/02/09 15:30:07;;;;;;;83.63;55.15;;;;;;;;;;9919167;28;20135;-71
2024/02/09 15:35:00;;;;;;;88.63;58.63;;;;;;;;;;9918554;28;20062;-71
2024/02/09 15:39:55;;;;;;;84.13;53.97;;;;;;;;;;9917958;28;20082;-73
2024/02/09 15:44:48;;;;;;;18.73;10.50;;;;;;;;;;9911529;28;20055;-71
2024/02/09 15:49:40;;;;;;;18.58;8.45;;;;;;;;;;9922699;28;20050;-71
2024/02/09 15:54:33;;;;;;;7.88;4.05;;;;;;;;;;9917566;28;20068;-71
2024/02/09 15:59:25;;;;;;;8.93;3.25;;;;;;;;;;9923052;28;20038;-71
2024/02/09 16:04:18;;;;;;;12.55;3.22;;;;;;;;;;9925617;28;20038;-70
2024/02/09 16:09:10;;;;;;;16.55;3.58;;;;;;;;;;9912260;28;20134;-71
2024/02/09 16:14:02;;;;;;;9.10;3.63;;;;;;;;;;9917668;28;20039;-71
2024/02/09 16:18:54;;;;;;;12.73;3.15;;;;;;;;;;9919246;28;20494;-71
2024/02/09 16:23:48;;;;;;;12.15;2.95;;;;;;;;;;9927113;28;20351;-72
2024/02/09 16:28:40;;;;;;;9.55;4.03;;;;;;;;;;9912880;28;20046;-72
2024/02/09 16:33:34;;;;;;;11.90;5.78;;;;;;;;;;9919414;28;20117;-72
2024/02/09 16:38:26;;;;;;;9.80;3.95;;;;;;;;;;9911926;28;20043;-72
2024/02/09 16:43:19;;;;;;;20.50;5.13;;;;;;;;;;9916697;28;20081;-72
2024/02/09 16:48:12;;;;;;;24.08;11.00;;;;;;;;;;9911619;28;20054;-72
2024/02/09 16:53:06;;;;;;;17.55;6.70;;;;;;;;;;9917816;28;20058;-72
2024/02/09 16:57:58;;;;;;;11.85;6.70;;;;;;;;;;9915570;28;20051;-72
2024/02/09 17:02:49;;;;;;;8.80;4.45;;;;;;;;;;9906856;28;20627;-71
2024/02/09 17:07:41;;;;;;;13.85;6.10;;;;;;;;;;9906632;28;20098;-72
2024/02/09 17:12:33;;;;;;;8.43;4.40;;;;;;;;;;9912332;28;20059;-72
2024/02/09 17:17:25;;;;;;;7.63;4.45;;;;;;;;;;9913440;28;20093;-72
2024/02/09 17:22:17;;;;;;;6.97;3.00;;;;;;;;;;9915507;28;20051;-72
2024/02/09 17:27:10;;;;;;;18.08;8.10;;;;;;;;;;9916664;28;20050;-71
2024/02/09 17:32:04;;;;;;;6.47;3.58;;;;;;;;;;9916803;28;20043;-71
2024/02/09 17:36:56;;;;;;;6.78;3.33;;;;;;;;;;9915734;28;20137;-72
2024/02/09 17:41:48;;;;;;;6.32;2.55;;;;;;;;;;9915535;28;20046;-71
2024/02/09 17:46:40;;;;;;;11.15;5.82;;;;;;;;;;9915229;28;20129;-71
2024/02/09 17:51:32;;;;;;;13.68;5.47;;;;;;;;;;9915447;28;20498;-72
2024/02/09 17:56:24;;;;;;;12.45;6.97;;;;;;;;;;9915372;28;20090;-71
2024/02/09 18:01:16;;;;;;;30.27;20.13;;;;;;;;;;9914833;28;20051;-71
2024/02/09 18:06:08;;;;;;;22.00;19.70;;;;;;;;;;9915013;28;20423;-72
2024/02/09 18:11:00;;;;;;;13.95;6.30;;;;;;;;;;9916488;28;20502;-71
2024/02/09 18:15:52;;;;;;;10.57;6.15;;;;;;;;;;9915391;28;20055;-72
2024/02/09 18:20:50;;;;;;;9.68;4.30;;;;;;;;;;9913669;28;20051;-71
2024/02/09 18:25:42;;;;;;;14.82;4.78;;;;;;;;;;9913091;28;20423;-71
2024/02/09 18:30:35;;;;;;;5.32;3.15;;;;;;;;;;9914779;28;20475;-71
2024/02/09 18:35:27;;;;;;;7.72;2.92;;;;;;;;;;9913124;28;20372;-72
2024/02/09 18:40:19;;;;;;;9.50;3.63;;;;;;;;;;9912515;28;20047;-70
2024/02/09 18:45:12;;;;;;;9.15;6.18;;;;;;;;;;9907807;28;20059;-71
2024/02/09 18:50:07;;;;;;;6.20;3.60;;;;;;;;;;9922541;28;20050;-71
2024/02/09 18:54:59;;;;;;;10.23;4.70;;;;;;;;;;9907504;28;20394;-71
2024/02/09 18:59:51;;;;;;;11.88;4.82;;;;;;;;;;9906848;28;20055;-71
2024/02/09 19:04:43;;;;;;;8.77;4.80;;;;;;;;;;9904205;28;20448;-71
2024/02/09 19:09:35;;;;;;;6.82;4.60;;;;;;;;;;9931363;28;20087;-71
2024/02/09 19:14:29;;;;;;;7.40;3.30;;;;;;;;;;9940076;28;20117;-72
2024/02/09 19:19:21;;;;;;;10.10;5.40;;;;;;;;;;9941869;28;20146;-71
2024/02/09 19:24:14;;;;;;;13.80;6.38;;;;;;;;;;9941983;28;20055;-71
2024/02/09 19:29:06;;;;;;;10.13;7.10;;;;;;;;;;9936859;28;20533;-72
2024/02/09 19:33:58;;;;;;;14.40;7.80;;;;;;;;;;9931342;28;20082;-72
2024/02/09 19:38:50;;;;;;;13.77;9.02;;;;;;;;;;9938721;28;20035;-72
2024/02/09 19:43:42;;;;;;;13.10;7.13;;;;;;;;;;9933096;28;20051;-72
2024/02/09 19:48:35;;;;;;;9.07;7.10;;;;;;;;;;9934121;28;20053;-72
2024/02/09 19:53:29;;;;;;;12.93;8.73;;;;;;;;;;9926822;28;20051;-71
2024/02/09 19:58:21;;;;;;;8.77;5.63;;;;;;;;;;9919630;28;20478;-75
2024/02/09 20:03:15;;;;;;;10.43;6.88;;;;;;;;;;9938628;28;20039;-76
2024/02/09 20:08:08;;;;;;;6.38;4.47;;;;;;;;;;9935449;28;20181;-76
2024/02/09 20:13:00;;;;;;;5.38;4.28;;;;;;;;;;9938710;28;20439;-75
2024/02/09 20:17:51;;;;;;;45.42;34.78;;;;;;;;;;9934695;28;20070;-75
2024/02/09 20:22:48;;;;;;;7.90;5.00;;;;;;;;;;9937901;28;20062;-75
2024/02/09 20:27:41;;;;;;;11.65;7.82;;;;;;;;;;9923351;28;20047;-75
2024/02/09 20:32:33;;;;;;;4.60;3.03;;;;;;;;;;9916647;28;20047;-75
2024/02/09 20:37:25;;;;;;;8.88;4.63;;;;;;;;;;9928490;28;20478;-76
2024/02/09 20:42:18;;;;;;;5.97;2.80;;;;;;;;;;9945307;28;20047;-75
2024/02/09 20:47:12;;;;;;;4.40;3.22;;;;;;;;;;9939778;28;20070;-77
2024/02/09 20:52:06;;;;;;;7.13;4.10;;;;;;;;;;9948784;28;20071;-77
2024/02/09 20:57:05;;;;;;;11.98;8.32;;;;;;;;;;9941623;28;20831;-76
2024/02/09 21:01:57;;;;;;;11.88;7.90;;;;;;;;;;9942526;28;20057;-75
2024/02/09 21:06:49;;;;;;;11.27;8.63;;;;;;;;;;9919279;28;20043;-75
2024/02/09 21:11:41;;;;;;;11.30;8.25;;;;;;;;;;9932140;28;20042;-75
2024/02/09 21:16:35;;;;;;;13.88;10.70;;;;;;;;;;9903617;28;20069;-75
2024/02/09 21:21:27;;;;;;;5.63;3.63;;;;;;;;;;9918998;28;20811;-74
2024/02/09 21:26:19;;;;;;;4.07;2.60;;;;;;;;;;9917336;28;20057;-75
2024/02/09 21:31:13;;;;;;;2.80;2.60;;;;;;;;;;9917284;28;20047;-75
2024/02/09 21:36:06;;;;;;;2.53;2.28;;;;;;;;;;9922383;28;20047;-75
2024/02/09 21:40:58;;;;;;;3.63;1.98;;;;;;;;;;9936392;28;20051;-76
2024/02/09 21:45:51;;;;;;;4.88;2.72;;;;;;;;;;9920397;28;20054;-75
2024/02/09 21:50:46;;;;;;;3.35;2.35;;;;;;;;;;9931779;28;20137;-75
2024/02/09 21:55:39;;;;;;;3.42;2.13;;;;;;;;;;9935331;28;20537;-76
2024/02/09 22:00:33;;;;;;;5.43;2.38;;;;;;;;;;9937354;28;20093;-76
2024/02/09 22:05:26;;;;;;;3.97;2.72;;;;;;;;;;9942982;28;20426;-75
2024/02/09 22:10:18;;;;;;;4.22;2.53;;;;;;;;;;9935165;28;20042;-75
2024/02/09 22:15:11;;;;;;;3.08;2.00;;;;;;;;;;9942915;28;20147;-75
2024/02/09 22:20:09;;;;;;;6.15;2.75;;;;;;;;;;9909508;28;20475;-75
2024/02/09 22:25:02;;;;;;;6.32;2.00;;;;;;;;;;9910341;28;20043;-75
2024/02/09 22:29:56;;;;;;;1.88;1.58;;;;;;;;;;9911783;28;20503;-76
2024/02/09 22:34:48;;;;;;;5.72;2.65;;;;;;;;;;9909441;28;20442;-76
2024/02/09 22:39:41;;;;;;;7.35;2.88;;;;;;;;;;9923258;28;20053;-75
2024/02/09 22:44:36;;;;;;;6.75;2.63;;;;;;;;;;9908246;28;20078;-75
2024/02/09 22:49:28;;;;;;;4.30;2.50;;;;;;;;;;9907922;28;20047;-75
2024/02/09 22:54:21;;;;;;;3.67;3.00;;;;;;;;;;9907374;28;20065;-75
2024/02/09 22:59:14;;;;;;;4.10;3.20;;;;;;;;;;9912005;28;20125;-76
2024/02/09 23:04:08;;;;;;;2.47;2.28;;;;;;;;;;9916286;28;20047;-75
2024/02/09 23:09:00;;;;;;;3.47;3.15;;;;;;;;;;9922402;28;20051;-76
2024/02/09 23:13:52;;;;;;;8.35;7.13;;;;;;;;;;9911930;28;20047;-75
2024/02/09 23:18:44;;;;;;;8.70;5.53;;;;;;;;;;9905961;28;20813;-75
2024/02/09 23:23:37;;;;;;;6.50;5.82;;;;;;;;;;9911203;28;20478;-75
2024/02/09 23:28:29;;;;;;;6.65;5.22;;;;;;;;;;9906594;28;20082;-75
2024/02/09 23:33:21;;;;;;;7.40;4.90;;;;;;;;;;9914962;28;20383;-76
2024/02/09 23:38:14;;;;;;;7.25;5.63;;;;;;;;;;9906103;28;20042;-75
2024/02/09 23:43:06;;;;;;;14.35;13.05;;;;;;;;;;9904416;28;20043;-75
2024/02/09 23:47:58;;;;;;;13.40;11.63;;;;;;;;;;9902061;28;20051;-75
2024/02/09 23:52:50;;;;;;;16.17;13.05;;;;;;;;;;9904560;28;20047;-75
2024/02/09 23:57:46;;;;;;;18.85;14.93;;;;;;;;;;9905754;28;20043;-75
